Time;durP1;ratioP1;P1;durP2;ratioP2;P2;SDS_P1;SDS_P2;PMS_P1;PMS_P2;Temp;Humidity;BMP_temperature;BMP_pressure;BME280_temperature;BME280_humidity;BME280_pressure;Samples;Min_cycle;Max_cycle;Signal;HPM_P1;HPM_P2
2023/04/21 00:02:14;;;;;;;13.95;2.67;;;;;;;;;;5053571;28;20041;-75
2023/04/21 00:04:48;;;;;;;11.15;2.30;;;;;;;;;;5053784;28;20048;-75
2023/04/21 00:07:21;;;;;;;14.40;3.05;;;;;;;;;;5048524;28;20033;-75
2023/04/21 00:09:46;;;;;;;7.43;2.33;;;;;;;;;;5061325;28;20035;-75
2023/04/21 00:12:18;;;;;;;7.40;2.15;;;;;;;;;;5060002;28;20116;-75
2023/04/21 00:14:50;;;;;;;10.68;2.65;;;;;;;;;;5065122;28;20041;-75
2023/04/21 00:17:16;;;;;;;9.50;2.90;;;;;;;;;;5064916;28;20029;-76
2023/04/21 00:19:47;;;;;;;6.30;2.83;;;;;;;;;;5055996;28;20105;-75
2023/04/21 00:22:20;;;;;;;7.95;2.72;;;;;;;;;;5055564;28;20507;-75
2023/04/21 00:24:45;;;;;;;6.50;2.28;;;;;;;;;;5055582;28;20041;-75
2023/04/21 00:27:17;;;;;;;8.00;2.65;;;;;;;;;;5062977;28;20047;-75
2023/04/21 00:29:49;;;;;;;8.52;2.30;;;;;;;;;;5059990;28;20515;-75
2023/04/21 00:32:15;;;;;;;8.90;2.55;;;;;;;;;;5061796;28;20101;-75
2023/04/21 00:34:47;;;;;;;4.30;1.65;;;;;;;;;;5070776;28;20032;-75
2023/04/21 00:37:19;;;;;;;8.25;2.83;;;;;;;;;;5065752;28;20480;-75
2023/04/21 00:39:45;;;;;;;7.15;2.80;;;;;;;;;;5053450;28;20090;-75
2023/04/21 00:42:16;;;;;;;5.75;2.65;;;;;;;;;;5055280;28;20477;-75
2023/04/21 00:44:48;;;;;;;9.60;2.70;;;;;;;;;;5054212;28;20099;-75
2023/04/21 00:47:14;;;;;;;11.63;2.80;;;;;;;;;;5053592;28;20080;-75
2023/04/21 00:49:45;;;;;;;14.13;2.80;;;;;;;;;;5067620;28;20456;-75
2023/04/21 00:52:18;;;;;;;9.88;2.88;;;;;;;;;;5057841;28;20041;-75
2023/04/21 00:54:43;;;;;;;11.82;3.63;;;;;;;;;;5048781;28;20047;-75
2023/04/21 00:57:18;;;;;;;9.43;3.10;;;;;;;;;;5048879;28;20045;-75
2023/04/21 00:59:50;;;;;;;10.90;2.75;;;;;;;;;;5085945;28;20403;-75
2023/04/21 01:02:16;;;;;;;6.88;2.53;;;;;;;;;;5057894;28;20060;-75
2023/04/21 01:04:49;;;;;;;8.43;3.45;;;;;;;;;;5058131;28;20056;-75
2023/04/21 01:07:24;;;;;;;12.52;3.55;;;;;;;;;;5067488;28;20040;-75
2023/04/21 01:09:49;;;;;;;12.35;3.80;;;;;;;;;;5086722;28;20119;-75
2023/04/21 01:12:21;;;;;;;9.25;3.08;;;;;;;;;;5068483;28;20111;-75
2023/04/21 01:14:53;;;;;;;13.05;3.10;;;;;;;;;;5066060;28;20065;-75
2023/04/21 01:17:19;;;;;;;13.88;3.28;;;;;;;;;;5067806;28;20033;-75
2023/04/21 01:19:51;;;;;;;12.40;3.25;;;;;;;;;;5058003;28;20036;-75
2023/04/21 01:22:23;;;;;;;13.10;3.42;;;;;;;;;;5053183;28;20076;-75
2023/04/21 01:24:49;;;;;;;9.20;2.60;;;;;;;;;;5056957;28;20165;-75
2023/04/21 01:27:25;;;;;;;8.52;2.95;;;;;;;;;;5065499;28;20115;-75
2023/04/21 01:29:57;;;;;;;11.13;3.65;;;;;;;;;;5057946;28;20059;-75
2023/04/21 01:32:32;;;;;;;10.32;3.22;;;;;;;;;;5053518;28;20501;-75
2023/04/21 01:35:05;;;;;;;7.00;2.97;;;;;;;;;;5068147;28;20048;-75
2023/04/21 01:37:31;;;;;;;11.57;3.42;;;;;;;;;;5060980;28;20040;-75
2023/04/21 01:40:05;;;;;;;11.43;3.75;;;;;;;;;;5077241;28;20025;-75
2023/04/21 01:42:42;;;;;;;8.30;3.53;;;;;;;;;;5052751;28;20045;-75
2023/04/21 01:45:15;;;;;;;10.75;3.60;;;;;;;;;;5057501;28;20068;-75
2023/04/21 01:47:47;;;;;;;8.85;3.88;;;;;;;;;;5045803;28;20489;-75
2023/04/21 01:50:13;;;;;;;11.85;3.90;;;;;;;;;;5062854;28;20098;-75
2023/04/21 01:52:44;;;;;;;13.98;4.30;;;;;;;;;;5057829;28;20040;-75
2023/04/21 01:55:16;;;;;;;8.15;3.60;;;;;;;;;;5068414;28;20102;-75
2023/04/21 01:57:42;;;;;;;7.97;3.45;;;;;;;;;;5057645;28;20120;-75
2023/04/21 02:00:14;;;;;;;9.75;3.95;;;;;;;;;;5063929;28;20104;-75
2023/04/21 02:02:46;;;;;;;9.57;3.72;;;;;;;;;;5055996;28;20049;-75
2023/04/21 02:05:12;;;;;;;18.60;4.35;;;;;;;;;;5054462;28;20374;-75
2023/04/21 02:07:43;;;;;;;11.50;3.80;;;;;;;;;;5058271;28;20112;-75
2023/04/21 02:10:16;;;;;;;11.23;4.32;;;;;;;;;;5055559;28;20071;-75
2023/04/21 02:12:41;;;;;;;10.20;3.70;;;;;;;;;;5057781;28;20033;-75
2023/04/21 02:15:13;;;;;;;10.30;4.03;;;;;;;;;;5053733;28;20111;-75
2023/04/21 02:17:46;;;;;;;10.85;4.30;;;;;;;;;;5057826;28;20044;-75
2023/04/21 02:20:12;;;;;;;12.90;4.45;;;;;;;;;;5056588;28;20033;-75
2023/04/21 02:22:44;;;;;;;11.93;3.22;;;;;;;;;;5062879;28;20048;-75
2023/04/21 02:25:16;;;;;;;11.68;4.20;;;;;;;;;;5062621;28;20074;-75
2023/04/21 02:27:42;;;;;;;15.75;4.00;;;;;;;;;;5056480;28;20485;-76
2023/04/21 02:30:14;;;;;;;13.85;4.47;;;;;;;;;;5062718;28;20052;-75
2023/04/21 02:32:46;;;;;;;18.95;5.05;;;;;;;;;;5057166;28;20063;-75
2023/04/21 02:35:12;;;;;;;13.02;4.45;;;;;;;;;;5058257;28;20511;-75
2023/04/21 02:37:44;;;;;;;16.55;4.07;;;;;;;;;;5059059;28;20059;-75
2023/04/21 02:40:16;;;;;;;13.27;4.10;;;;;;;;;;5057374;28;20141;-75
2023/04/21 02:42:42;;;;;;;13.80;4.57;;;;;;;;;;5056873;28;20028;-75
2023/04/21 02:45:14;;;;;;;12.15;4.07;;;;;;;;;;5060273;28;20043;-75
2023/04/21 02:47:46;;;;;;;14.05;4.57;;;;;;;;;;5062396;28;20388;-75
2023/04/21 02:50:12;;;;;;;13.63;4.72;;;;;;;;;;5060824;28;20120;-75
2023/04/21 02:52:44;;;;;;;13.18;5.05;;;;;;;;;;5055744;28;20166;-75
2023/04/21 02:55:16;;;;;;;13.77;5.28;;;;;;;;;;5061047;28;20037;-75
2023/04/21 02:57:42;;;;;;;15.35;4.90;;;;;;;;;;5059679;28;20033;-76
2023/04/21 03:00:14;;;;;;;15.23;5.78;;;;;;;;;;5068063;28;20029;-75
2023/04/21 03:02:46;;;;;;;11.82;4.60;;;;;;;;;;5056850;28;20124;-75
2023/04/21 03:05:12;;;;;;;11.73;5.13;;;;;;;;;;5065581;28;20078;-75
2023/04/21 03:07:44;;;;;;;11.30;4.80;;;;;;;;;;5074355;28;20032;-75
2023/04/21 03:10:18;;;;;;;17.35;5.75;;;;;;;;;;5050195;28;20551;-75
2023/04/21 03:12:44;;;;;;;13.98;5.10;;;;;;;;;;5065845;28;20029;-76
2023/04/21 03:15:15;;;;;;;12.20;4.75;;;;;;;;;;5067871;28;20041;-75
2023/04/21 03:17:47;;;;;;;16.73;4.65;;;;;;;;;;5063604;28;20044;-75
2023/04/21 03:20:13;;;;;;;14.00;5.25;;;;;;;;;;5069892;28;20040;-75
2023/04/21 03:22:45;;;;;;;18.90;5.80;;;;;;;;;;5065741;28;20090;-76
2023/04/21 03:25:17;;;;;;;15.70;5.55;;;;;;;;;;5067835;28;20037;-75
2023/04/21 03:27:43;;;;;;;15.77;5.40;;;;;;;;;;5051571;28;20037;-75
2023/04/21 03:30:15;;;;;;;13.90;5.55;;;;;;;;;;5068644;28;20451;-75
2023/04/21 03:32:47;;;;;;;15.40;6.20;;;;;;;;;;5056507;28;20090;-75
2023/04/21 03:35:13;;;;;;;18.27;5.90;;;;;;;;;;5060910;28;20090;-75
2023/04/21 03:37:45;;;;;;;17.85;5.80;;;;;;;;;;5056527;28;20032;-75
2023/04/21 03:40:17;;;;;;;24.67;5.68;;;;;;;;;;5055187;28;20541;-75
2023/04/21 03:42:43;;;;;;;17.88;5.28;;;;;;;;;;5085631;28;20399;-75
2023/04/21 03:45:18;;;;;;;14.40;5.15;;;;;;;;;;5062207;28;20037;-75
2023/04/21 03:47:53;;;;;;;16.17;5.13;;;;;;;;;;5054456;28;20443;-75
2023/04/21 03:50:25;;;;;;;17.92;5.93;;;;;;;;;;5063656;28;20072;-75
2023/04/21 03:52:57;;;;;;;18.90;5.53;;;;;;;;;;5083505;28;20107;-75
2023/04/21 03:55:23;;;;;;;20.52;5.95;;;;;;;;;;5069408;28;20060;-75
2023/04/21 03:57:54;;;;;;;19.00;5.88;;;;;;;;;;5065426;28;20538;-76
2023/04/21 04:00:26;;;;;;;12.73;5.05;;;;;;;;;;5062499;28;20121;-75
2023/04/21 04:02:52;;;;;;;19.10;5.80;;;;;;;;;;5055102;28;20424;-75
2023/04/21 04:05:23;;;;;;;24.52;5.75;;;;;;;;;;5065033;28;20044;-75
2023/04/21 04:07:55;;;;;;;23.02;5.78;;;;;;;;;;5056431;28;20051;-75
2023/04/21 04:10:21;;;;;;;17.42;5.68;;;;;;;;;;5055996;28;20087;-75
2023/04/21 04:12:54;;;;;;;19.65;5.82;;;;;;;;;;5063764;28;20037;-76
2023/04/21 04:15:26;;;;;;;21.73;6.45;;;;;;;;;;5060312;28;20072;-75
2023/04/21 04:17:51;;;;;;;24.88;6.60;;;;;;;;;;5066567;28;20120;-75
2023/04/21 04:20:23;;;;;;;19.40;7.22;;;;;;;;;;5054468;28;20100;-75
2023/04/21 04:22:55;;;;;;;14.60;6.15;;;;;;;;;;5061456;28;20040;-75
2023/04/21 04:25:21;;;;;;;27.05;7.82;;;;;;;;;;5053058;28;20380;-75
2023/04/21 04:27:54;;;;;;;18.50;7.22;;;;;;;;;;5055555;28;20031;-75
2023/04/21 04:30:27;;;;;;;24.23;6.45;;;;;;;;;;5056583;28;20049;-75
2023/04/21 04:32:52;;;;;;;9.90;5.88;;;;;;;;;;5056270;28;20121;-75
2023/04/21 04:35:24;;;;;;;26.63;7.30;;;;;;;;;;5061029;28;20409;-75
2023/04/21 04:37:57;;;;;;;15.77;5.75;;;;;;;;;;5061035;28;20040;-75
2023/04/21 04:40:23;;;;;;;14.85;6.80;;;;;;;;;;5066579;28;20040;-76
2023/04/21 04:42:55;;;;;;;14.60;6.93;;;;;;;;;;5056926;28;20048;-75
2023/04/21 04:45:30;;;;;;;20.88;5.65;;;;;;;;;;5050870;28;20496;-76
2023/04/21 04:48:02;;;;;;;15.25;5.95;;;;;;;;;;5058571;28;20049;-75
2023/04/21 04:50:34;;;;;;;23.15;7.72;;;;;;;;;;5053883;28;20067;-75
2023/04/21 04:53:00;;;;;;;23.88;7.78;;;;;;;;;;5060314;28;20528;-75
2023/04/21 04:55:31;;;;;;;21.02;8.05;;;;;;;;;;5060899;28;20155;-75
2023/04/21 04:58:03;;;;;;;24.75;8.38;;;;;;;;;;5064418;28;20044;-75
2023/04/21 05:00:30;;;;;;;25.27;8.15;;;;;;;;;;5062556;28;20492;-75
2023/04/21 05:03:02;;;;;;;12.82;5.95;;;;;;;;;;5064918;28;20025;-75
2023/04/21 05:05:34;;;;;;;18.45;6.50;;;;;;;;;;5066466;28;20117;-75
2023/04/21 05:08:00;;;;;;;23.55;7.57;;;;;;;;;;5052000;28;20438;-75
2023/04/21 05:10:31;;;;;;;10.00;4.97;;;;;;;;;;5060976;28;20028;-75
2023/04/21 05:13:03;;;;;;;17.77;6.75;;;;;;;;;;5069223;28;20079;-75
2023/04/21 05:15:29;;;;;;;16.20;7.60;;;;;;;;;;5064897;28;20083;-75
2023/04/21 05:18:00;;;;;;;20.73;7.53;;;;;;;;;;5063923;28;20032;-75
2023/04/21 05:20:32;;;;;;;16.27;7.15;;;;;;;;;;5052571;28;20041;-75
2023/04/21 05:22:58;;;;;;;15.95;6.90;;;;;;;;;;5063182;28;20048;-75
2023/04/21 05:25:29;;;;;;;22.98;6.93;;;;;;;;;;5062427;28;20082;-75
2023/04/21 05:28:01;;;;;;;14.93;5.75;;;;;;;;;;5064881;28;20444;-75
2023/04/21 05:30:27;;;;;;;18.52;6.05;;;;;;;;;;5054138;28;20048;-76
2023/04/21 05:32:58;;;;;;;12.65;6.38;;;;;;;;;;5054116;28;20060;-75
2023/04/21 05:35:30;;;;;;;22.50;7.40;;;;;;;;;;5063894;28;20037;-75
2023/04/21 05:37:56;;;;;;;19.52;7.13;;;;;;;;;;5073355;28;20495;-75
2023/04/21 05:40:27;;;;;;;17.63;7.25;;;;;;;;;;5052839;28;20041;-75
2023/04/21 05:42:59;;;;;;;20.10;7.18;;;;;;;;;;5058563;28;20117;-75
2023/04/21 05:45:25;;;;;;;12.23;5.65;;;;;;;;;;5064780;28;20622;-75
2023/04/21 05:47:56;;;;;;;14.95;6.15;;;;;;;;;;5065248;28;20120;-75
2023/04/21 05:50:32;;;;;;;16.58;6.25;;;;;;;;;;5052957;28;20032;-75
2023/04/21 05:53:04;;;;;;;17.45;6.43;;;;;;;;;;5063216;28;20508;-75
2023/04/21 05:55:36;;;;;;;22.33;7.35;;;;;;;;;;5056807;28;20496;-75
2023/04/21 05:58:03;;;;;;;13.27;8.02;;;;;;;;;;5064275;28;20072;-75
2023/04/21 06:00:35;;;;;;;16.35;6.32;;;;;;;;;;5054778;28;20029;-75
2023/04/21 06:03:07;;;;;;;20.23;7.05;;;;;;;;;;5060629;28;20112;-75
2023/04/21 06:05:33;;;;;;;15.63;6.85;;;;;;;;;;5057434;28;20538;-75
2023/04/21 06:08:04;;;;;;;20.02;7.32;;;;;;;;;;5064349;28;20045;-75
2023/04/21 06:10:36;;;;;;;25.08;7.50;;;;;;;;;;5057901;28;20099;-75
2023/04/21 06:13:02;;;;;;;21.95;6.25;;;;;;;;;;5055938;28;20399;-75
2023/04/21 06:15:33;;;;;;;19.73;7.35;;;;;;;;;;5061959;28;20107;-76
2023/04/21 06:18:05;;;;;;;21.02;7.32;;;;;;;;;;5055745;28;20052;-76
2023/04/21 06:20:31;;;;;;;15.75;6.82;;;;;;;;;;5054777;28;20040;-76
2023/04/21 06:23:03;;;;;;;17.05;7.53;;;;;;;;;;5060180;28;20044;-76
2023/04/21 06:25:35;;;;;;;18.85;6.57;;;;;;;;;;5048204;28;20044;-75
2023/04/21 06:28:01;;;;;;;14.80;6.93;;;;;;;;;;5060214;28;20071;-76
2023/04/21 06:30:33;;;;;;;18.08;6.53;;;;;;;;;;5059239;28;20072;-75
2023/04/21 06:33:05;;;;;;;17.00;6.85;;;;;;;;;;5048935;28;20043;-76
2023/04/21 06:35:31;;;;;;;17.63;7.13;;;;;;;;;;5061345;28;20041;-75
2023/04/21 06:38:03;;;;;;;13.90;6.57;;;;;;;;;;5055361;28;20443;-75
2023/04/21 06:40:35;;;;;;;15.00;6.38;;;;;;;;;;5068985;28;20119;-75
2023/04/21 06:43:01;;;;;;;15.63;5.68;;;;;;;;;;5058972;28;20079;-76
2023/04/21 06:45:32;;;;;;;15.68;5.93;;;;;;;;;;5064314;28;20481;-76
2023/04/21 06:48:05;;;;;;;13.80;5.63;;;;;;;;;;5056247;28;20094;-76
2023/04/21 06:50:30;;;;;;;13.38;6.40;;;;;;;;;;5059959;28;20037;-76
2023/04/21 06:53:02;;;;;;;16.80;5.97;;;;;;;;;;5068515;28;20028;-76
2023/04/21 06:55:34;;;;;;;16.60;6.10;;;;;;;;;;5049216;28;20037;-76
2023/04/21 06:58:00;;;;;;;17.25;5.82;;;;;;;;;;5051782;28;20041;-76
2023/04/21 07:00:32;;;;;;;17.45;5.95;;;;;;;;;;5051376;28;20029;-75
2023/04/21 07:03:05;;;;;;;13.95;5.75;;;;;;;;;;5052465;28;20043;-76
2023/04/21 07:05:31;;;;;;;19.30;6.68;;;;;;;;;;5049574;28;20041;-76
2023/04/21 07:08:03;;;;;;;16.05;5.70;;;;;;;;;;5061775;28;20055;-76
2023/04/21 07:10:35;;;;;;;15.05;5.75;;;;;;;;;;5068222;28;20033;-76
2023/04/21 07:13:01;;;;;;;14.55;5.65;;;;;;;;;;5068388;28;20439;-76
2023/04/21 07:15:32;;;;;;;15.80;5.82;;;;;;;;;;5067392;28;20024;-76
2023/04/21 07:18:05;;;;;;;16.17;6.07;;;;;;;;;;5065101;28;20044;-76
2023/04/21 07:20:30;;;;;;;17.35;6.35;;;;;;;;;;5060981;28;20091;-76
2023/04/21 07:23:02;;;;;;;14.55;5.60;;;;;;;;;;5056377;28;20033;-76
2023/04/21 07:25:35;;;;;;;12.15;4.80;;;;;;;;;;5045528;28;20404;-76
2023/04/21 07:28:02;;;;;;;14.37;5.87;;;;;;;;;;5068765;28;20036;-76
2023/04/21 07:30:34;;;;;;;13.43;5.88;;;;;;;;;;5065248;28;20084;-76
2023/04/21 07:33:07;;;;;;;12.10;5.15;;;;;;;;;;5056002;28;20041;-76
2023/04/21 07:35:33;;;;;;;15.90;5.70;;;;;;;;;;5055243;28;20041;-76
2023/04/21 07:38:04;;;;;;;15.75;5.63;;;;;;;;;;5062671;28;20362;-76
2023/04/21 07:40:37;;;;;;;15.30;5.65;;;;;;;;;;5068571;28;20539;-76
2023/04/21 07:43:02;;;;;;;16.92;6.07;;;;;;;;;;5054971;28;20056;-76
2023/04/21 07:45:34;;;;;;;14.88;5.60;;;;;;;;;;5062799;28;20033;-76
2023/04/21 07:48:07;;;;;;;15.35;6.05;;;;;;;;;;5055589;28;20041;-76
2023/04/21 07:50:35;;;;;;;11.80;5.25;;;;;;;;;;5062581;28;20052;-76
2023/04/21 07:53:07;;;;;;;21.05;6.13;;;;;;;;;;5078871;28;20115;-76
2023/04/21 07:55:39;;;;;;;17.27;6.03;;;;;;;;;;5068744;28;20043;-76
2023/04/21 07:58:05;;;;;;;13.13;5.72;;;;;;;;;;5054727;28;20124;-76
2023/04/21 08:00:37;;;;;;;15.02;5.78;;;;;;;;;;5056650;28;20173;-76
2023/04/21 08:03:09;;;;;;;15.10;6.43;;;;;;;;;;5035365;28;20182;-76
2023/04/21 08:05:35;;;;;;;9.70;5.28;;;;;;;;;;5051385;28;20037;-76
2023/04/21 08:08:07;;;;;;;11.05;6.20;;;;;;;;;;5055973;28;20042;-77
2023/04/21 08:10:39;;;;;;;13.23;4.90;;;;;;;;;;5063123;28;20712;-77
2023/04/21 08:13:05;;;;;;;8.95;4.70;;;;;;;;;;5063184;28;20163;-77
2023/04/21 08:15:38;;;;;;;10.05;5.82;;;;;;;;;;5031681;28;20029;-76
2023/04/21 08:18:10;;;;;;;9.20;4.80;;;;;;;;;;5026955;28;20040;-76
2023/04/21 08:20:36;;;;;;;9.18;5.47;;;;;;;;;;5051381;28;20041;-76
2023/04/21 08:23:07;;;;;;;10.50;5.20;;;;;;;;;;5064740;28;20499;-76
2023/04/21 08:25:39;;;;;;;11.27;4.90;;;;;;;;;;5066369;28;20133;-77
2023/04/21 08:28:05;;;;;;;13.25;5.60;;;;;;;;;;5045399;28;20052;-76
2023/04/21 08:30:44;;;;;;;7.95;4.38;;;;;;;;;;5048240;28;20548;-76
2023/04/21 08:33:16;;;;;;;7.22;4.38;;;;;;;;;;5057809;28;20124;-76
2023/04/21 08:35:42;;;;;;;9.13;5.10;;;;;;;;;;5054271;28;20090;-76
2023/04/21 08:38:14;;;;;;;8.23;5.30;;;;;;;;;;5052832;28;20033;-76
2023/04/21 08:40:48;;;;;;;10.27;4.97;;;;;;;;;;5055542;28;20663;-76
2023/04/21 08:43:13;;;;;;;12.65;5.03;;;;;;;;;;5041619;28;20068;-76
2023/04/21 08:45:46;;;;;;;11.80;5.68;;;;;;;;;;5071830;28;20045;-76
2023/04/21 08:48:20;;;;;;;11.18;5.20;;;;;;;;;;5053041;28;20400;-76
2023/04/21 08:50:54;;;;;;;8.02;4.78;;;;;;;;;;5073423;28;20044;-76
2023/04/21 08:53:26;;;;;;;6.95;4.60;;;;;;;;;;5061591;28;20068;-76
2023/04/21 08:55:54;;;;;;;10.40;5.15;;;;;;;;;;5060166;28;20037;-76
2023/04/21 08:58:26;;;;;;;7.63;4.68;;;;;;;;;;5043549;28;20088;-76
2023/04/21 09:00:58;;;;;;;8.93;5.00;;;;;;;;;;5060946;28;20037;-76
2023/04/21 09:03:25;;;;;;;8.57;4.97;;;;;;;;;;5053181;28;20120;-76
2023/04/21 09:06:14;;;;;;;8.18;5.00;;;;;;;;;;5060236;28;20029;-77
2023/04/21 09:08:51;;;;;;;13.70;5.10;;;;;;;;;;5048864;28;20091;-76
2023/04/21 09:11:29;;;;;;;8.90;4.93;;;;;;;;;;5034326;28;20106;-76
2023/04/21 09:13:56;;;;;;;11.18;5.13;;;;;;;;;;5065471;28;20618;-76
2023/04/21 09:16:22;;;;;;;13.70;6.10;;;;;;;;;;5065751;28;20029;-76
2023/04/21 09:19:00;;;;;;;9.82;5.40;;;;;;;;;;5050716;28;20055;-76
2023/04/21 09:21:30;;;;;;;10.43;5.70;;;;;;;;;;5038194;28;21508;-76
2023/04/21 09:24:11;;;;;;;10.05;5.82;;;;;;;;;;5059116;28;20036;-76
2023/04/21 09:26:37;;;;;;;8.35;5.50;;;;;;;;;;5052062;28;20033;-76
2023/04/21 09:29:09;;;;;;;9.45;5.80;;;;;;;;;;5052777;28;20048;-75
2023/04/21 09:31:41;;;;;;;10.48;5.68;;;;;;;;;;5049286;28;20059;-76
2023/04/21 09:34:24;;;;;;;9.63;6.03;;;;;;;;;;5033894;28;20958;-76
2023/04/21 09:37:06;;;;;;;8.95;6.05;;;;;;;;;;5043237;28;20531;-76
2023/04/21 09:39:39;;;;;;;11.10;5.72;;;;;;;;;;5059969;28;20171;-75
2023/04/21 09:42:04;;;;;;;14.63;6.10;;;;;;;;;;5041914;28;20396;-76
2023/04/21 09:44:37;;;;;;;9.98;6.07;;;;;;;;;;5061463;28;20107;-75
2023/04/21 09:47:11;;;;;;;9.05;6.15;;;;;;;;;;5065888;28;20045;-76
2023/04/21 09:49:44;;;;;;;7.68;5.57;;;;;;;;;;5064613;28;20123;-76
2023/04/21 09:52:19;;;;;;;9.15;5.97;;;;;;;;;;5055759;28;20087;-76
2023/04/21 09:54:55;;;;;;;9.18;5.68;;;;;;;;;;5041193;28;20041;-76
2023/04/21 09:57:30;;;;;;;10.38;5.85;;;;;;;;;;5051792;28;20103;-76
2023/04/21 10:00:12;;;;;;;10.23;5.82;;;;;;;;;;5059193;28;20488;-76
2023/04/21 10:02:49;;;;;;;9.65;6.10;;;;;;;;;;5038729;28;20036;-75
2023/04/21 10:05:21;;;;;;;10.20;6.07;;;;;;;;;;5050274;28;20111;-76
2023/04/21 10:07:54;;;;;;;10.23;6.13;;;;;;;;;;5051659;28;20078;-76
2023/04/21 10:10:34;;;;;;;8.63;5.93;;;;;;;;;;5044410;28;20073;-75
2023/04/21 10:13:13;;;;;;;12.35;6.15;;;;;;;;;;5069299;28;20114;-75
2023/04/21 10:15:46;;;;;;;13.05;6.00;;;;;;;;;;5061953;28;20102;-76
2023/04/21 10:18:21;;;;;;;9.73;6.45;;;;;;;;;;5050391;28;20106;-76
2023/04/21 10:21:03;;;;;;;9.38;6.10;;;;;;;;;;5046241;28;20148;-76
2023/04/21 10:23:35;;;;;;;10.38;6.05;;;;;;;;;;5045017;28;20086;-76
2023/04/21 10:26:15;;;;;;;10.80;5.57;;;;;;;;;;5053705;28;20047;-75
2023/04/21 10:28:55;;;;;;;10.88;5.90;;;;;;;;;;5049546;28;20037;-76
2023/04/21 10:31:33;;;;;;;9.38;4.90;;;;;;;;;;5030048;28;20060;-76
2023/04/21 10:34:09;;;;;;;7.57;4.88;;;;;;;;;;5048862;28;20118;-75
2023/04/21 10:36:50;;;;;;;8.00;4.82;;;;;;;;;;5051350;28;20499;-76
2023/04/21 10:39:27;;;;;;;7.43;4.95;;;;;;;;;;5047730;28;20051;-76
2023/04/21 10:42:02;;;;;;;8.90;5.20;;;;;;;;;;5049451;28;20040;-76
2023/04/21 10:44:34;;;;;;;7.40;4.30;;;;;;;;;;5068875;28;20032;-76
2023/04/21 10:47:00;;;;;;;7.38;4.07;;;;;;;;;;5052077;28;20053;-76
2023/04/21 10:49:35;;;;;;;7.65;4.40;;;;;;;;;;5051566;28;20036;-76
2023/04/21 10:52:09;;;;;;;6.07;4.13;;;;;;;;;;5057457;28;20041;-75
2023/04/21 10:54:52;;;;;;;5.60;3.90;;;;;;;;;;5050662;28;20037;-75
2023/04/21 10:57:24;;;;;;;6.55;3.70;;;;;;;;;;5052122;28;20036;-75
2023/04/21 10:59:50;;;;;;;6.35;3.97;;;;;;;;;;5056475;28;20392;-76
2023/04/21 11:02:25;;;;;;;6.03;4.10;;;;;;;;;;5060944;28;20033;-76
2023/04/21 11:04:57;;;;;;;7.40;3.90;;;;;;;;;;5054859;28;20056;-75
2023/04/21 11:07:24;;;;;;;6.15;4.05;;;;;;;;;;5039229;28;20038;-75
2023/04/21 11:10:13;;;;;;;8.38;3.63;;;;;;;;;;5052780;28;20047;-75
2023/04/21 11:12:40;;;;;;;5.97;3.67;;;;;;;;;;5052071;28;20040;-76
2023/04/21 11:15:20;;;;;;;5.35;3.42;;;;;;;;;;5052745;28;20045;-75
2023/04/21 11:17:46;;;;;;;4.93;3.40;;;;;;;;;;5059134;28;20037;-75
2023/04/21 11:20:12;;;;;;;5.60;3.17;;;;;;;;;;5057645;28;20037;-76
2023/04/21 11:22:50;;;;;;;6.32;3.90;;;;;;;;;;5055201;28;20045;-75
2023/04/21 11:25:17;;;;;;;5.32;3.30;;;;;;;;;;5060014;28;20044;-76
2023/04/21 11:28:05;;;;;;;5.05;3.10;;;;;;;;;;5076711;28;20029;-76
2023/04/21 11:30:34;;;;;;;5.18;2.80;;;;;;;;;;5065137;28;20106;-76
2023/04/21 11:33:12;;;;;;;5.30;2.95;;;;;;;;;;5042849;28;20055;-76
2023/04/21 11:35:39;;;;;;;4.15;2.60;;;;;;;;;;5059532;28;20086;-76
2023/04/21 11:38:05;;;;;;;6.63;3.33;;;;;;;;;;5057996;28;20033;-75
2023/04/21 11:40:53;;;;;;;4.75;2.78;;;;;;;;;;5050281;28;20036;-76
2023/04/21 11:43:20;;;;;;;4.35;2.22;;;;;;;;;;5057117;28;20562;-76
2023/04/21 11:45:51;;;;;;;3.45;2.15;;;;;;;;;;5057040;28;20029;-76
2023/04/21 11:48:23;;;;;;;4.57;2.30;;;;;;;;;;5051769;28;20131;-76
2023/04/21 11:50:49;;;;;;;3.35;2.20;;;;;;;;;;5052969;28;20033;-75
2023/04/21 11:53:20;;;;;;;3.13;2.00;;;;;;;;;;5048706;28;20037;-76
2023/04/21 11:55:55;;;;;;;3.47;1.60;;;;;;;;;;5050381;28;20037;-75
2023/04/21 11:58:20;;;;;;;3.15;1.65;;;;;;;;;;5052673;28;20044;-75
2023/04/21 12:00:59;;;;;;;3.10;1.88;;;;;;;;;;5048121;28;20041;-76
2023/04/21 12:03:25;;;;;;;3.65;1.90;;;;;;;;;;5050777;28;20095;-75
2023/04/21 12:06:08;;;;;;;3.92;2.10;;;;;;;;;;5054505;28;20052;-76
2023/04/21 12:08:33;;;;;;;2.97;1.92;;;;;;;;;;5049468;28;20106;-75
2023/04/21 12:11:01;;;;;;;2.70;1.58;;;;;;;;;;5053832;28;20423;-76
2023/04/21 12:13:39;;;;;;;2.70;1.63;;;;;;;;;;5056051;28;20530;-76
2023/04/21 12:16:05;;;;;;;2.80;1.80;;;;;;;;;;5053754;28;20060;-76
2023/04/21 12:18:31;;;;;;;2.13;1.33;;;;;;;;;;5058626;28;20104;-76
2023/04/21 12:21:09;;;;;;;2.53;1.40;;;;;;;;;;5050405;28;20048;-76
2023/04/21 12:23:35;;;;;;;4.55;1.70;;;;;;;;;;5050447;28;20129;-76
2023/04/21 12:26:00;;;;;;;3.72;2.10;;;;;;;;;;5055448;28;20483;-76
2023/04/21 12:28:39;;;;;;;2.63;1.70;;;;;;;;;;5046705;28;20428;-76
2023/04/21 12:31:05;;;;;;;3.85;2.10;;;;;;;;;;5058615;28;20052;-76
2023/04/21 12:33:30;;;;;;;4.70;1.80;;;;;;;;;;5054421;28;20163;-76
2023/04/21 12:36:10;;;;;;;3.70;1.67;;;;;;;;;;5069988;28;20024;-75
2023/04/21 12:38:35;;;;;;;3.42;1.70;;;;;;;;;;5050350;28;20045;-76
2023/04/21 12:41:00;;;;;;;5.13;1.92;;;;;;;;;;5060124;28;20043;-75
2023/04/21 12:43:39;;;;;;;3.08;2.00;;;;;;;;;;5053320;28;20120;-76
2023/04/21 12:46:05;;;;;;;3.05;1.60;;;;;;;;;;5057119;28;20106;-75
2023/04/21 12:48:30;;;;;;;3.58;2.28;;;;;;;;;;5059710;28;20037;-76
2023/04/21 12:51:09;;;;;;;4.40;2.10;;;;;;;;;;5063122;28;20472;-76
2023/04/21 12:53:35;;;;;;;5.28;1.58;;;;;;;;;;5036532;28;20090;-76
2023/04/21 12:56:01;;;;;;;3.40;2.08;;;;;;;;;;5057325;28;20082;-76
2023/04/21 12:58:41;;;;;;;4.32;2.10;;;;;;;;;;5057626;28;20060;-76
2023/04/21 13:01:06;;;;;;;3.75;2.20;;;;;;;;;;5054725;28;20951;-75
2023/04/21 13:03:32;;;;;;;2.95;1.90;;;;;;;;;;5058073;28;20028;-76
2023/04/21 13:06:11;;;;;;;6.32;2.33;;;;;;;;;;5056985;28;20036;-75
2023/04/21 13:08:37;;;;;;;5.47;2.47;;;;;;;;;;5055789;28;20041;-75
2023/04/21 13:11:02;;;;;;;4.05;2.13;;;;;;;;;;5065225;28;20039;-76
2023/04/21 13:13:41;;;;;;;5.20;2.63;;;;;;;;;;5050968;28;20457;-76
2023/04/21 13:16:07;;;;;;;4.10;2.28;;;;;;;;;;5053846;28;20441;-76
2023/04/21 13:18:36;;;;;;;4.45;2.08;;;;;;;;;;5052522;28;20115;-76
2023/04/21 13:21:14;;;;;;;3.55;2.05;;;;;;;;;;5048685;28;20048;-76
2023/04/21 13:23:40;;;;;;;4.65;2.50;;;;;;;;;;5058703;28;20072;-76
2023/04/21 13:26:06;;;;;;;3.72;1.90;;;;;;;;;;5039362;28;20037;-75
2023/04/21 13:28:44;;;;;;;3.63;2.20;;;;;;;;;;5052375;28;20107;-75
2023/04/21 13:31:10;;;;;;;4.15;2.47;;;;;;;;;;5048986;28;20374;-76
2023/04/21 13:33:35;;;;;;;4.05;2.28;;;;;;;;;;5060848;28;20036;-76
2023/04/21 13:36:14;;;;;;;6.57;3.20;;;;;;;;;;5049417;28;20031;-75
2023/04/21 13:38:40;;;;;;;6.50;3.00;;;;;;;;;;5052480;28;20177;-76
2023/04/21 13:41:06;;;;;;;4.93;2.50;;;;;;;;;;5040668;28;20068;-76
2023/04/21 13:43:45;;;;;;;3.20;2.17;;;;;;;;;;5063766;28;20046;-76
2023/04/21 13:46:12;;;;;;;3.90;2.60;;;;;;;;;;5051094;28;20040;-76
2023/04/21 13:48:37;;;;;;;4.63;2.33;;;;;;;;;;5078146;28;20121;-76
2023/04/21 13:51:16;;;;;;;4.38;2.75;;;;;;;;;;5056175;28;20139;-75
2023/04/21 13:53:41;;;;;;;4.20;2.63;;;;;;;;;;5054207;28;20546;-75
2023/04/21 13:56:08;;;;;;;3.92;2.30;;;;;;;;;;5039345;28;20041;-75
2023/04/21 13:58:47;;;;;;;4.30;2.33;;;;;;;;;;5056902;28;20043;-75
2023/04/21 14:01:13;;;;;;;4.50;2.22;;;;;;;;;;5038370;28;20459;-76
2023/04/21 14:03:40;;;;;;;3.60;2.22;;;;;;;;;;5051121;28;20036;-75
2023/04/21 14:06:18;;;;;;;4.22;1.80;;;;;;;;;;5053249;28;20105;-75
2023/04/21 14:08:44;;;;;;;2.83;1.80;;;;;;;;;;5046021;28;20052;-75
2023/04/21 14:11:09;;;;;;;3.35;2.00;;;;;;;;;;5051995;28;20477;-75
2023/04/21 14:13:47;;;;;;;4.35;2.72;;;;;;;;;;5039683;28;20439;-75
2023/04/21 14:16:13;;;;;;;4.53;2.63;;;;;;;;;;5061219;28;20039;-75
2023/04/21 14:18:43;;;;;;;3.10;1.75;;;;;;;;;;5051755;28;20381;-75
2023/04/21 14:21:21;;;;;;;4.18;2.40;;;;;;;;;;5050908;28;20072;-76
2023/04/21 14:23:47;;;;;;;3.30;1.90;;;;;;;;;;5040457;28;20044;-76
2023/04/21 14:26:12;;;;;;;5.07;2.30;;;;;;;;;;5051994;28;20025;-76
2023/04/21 14:28:50;;;;;;;3.60;2.00;;;;;;;;;;5062788;28;20021;-75
2023/04/21 14:31:16;;;;;;;2.72;1.50;;;;;;;;;;5043916;28;20061;-76
2023/04/21 14:33:41;;;;;;;3.00;1.90;;;;;;;;;;5048886;28;20040;-75
2023/04/21 14:36:19;;;;;;;3.45;1.75;;;;;;;;;;5054035;28;20093;-75
2023/04/21 14:38:45;;;;;;;3.45;1.83;;;;;;;;;;5047747;28;20489;-76
2023/04/21 14:41:10;;;;;;;3.78;1.75;;;;;;;;;;5062176;28;20039;-76
2023/04/21 14:43:52;;;;;;;2.88;1.60;;;;;;;;;;5052120;28;20381;-75
2023/04/21 14:46:18;;;;;;;2.63;1.58;;;;;;;;;;5058846;28;20492;-75
2023/04/21 14:48:57;;;;;;;2.47;1.60;;;;;;;;;;5062528;28;20029;-75
2023/04/21 14:51:23;;;;;;;3.30;1.90;;;;;;;;;;5044642;28;20097;-75
2023/04/21 14:53:48;;;;;;;2.90;1.77;;;;;;;;;;5053273;28;20037;-75
2023/04/21 14:56:26;;;;;;;4.00;1.83;;;;;;;;;;5053588;28;20040;-75
2023/04/21 14:58:53;;;;;;;2.50;1.67;;;;;;;;;;5065555;28;20040;-75